PWSweather.com
Personal Weather Stations
Station Observations
WATERF01
WaterfordIE

WaterfordIE

Lat: 52.2412507, Lon: -7.1414691

Elevation: 65

Station Type: Davis Vantage Vue

Latest ConditionsUpdated 8:40:00 PM GMT Monday, Sep 23, 2019
Currently Today's Max Today's Min Today's Average
Temperature 62.0°F16.7°C 63.2°F17.3°C 47.3°F8.5°C 56.7°F13.7°C
Dew Point 61.8°F16.6°C 62.9°F17.2°C 43.9°F6.6°C 54.8°F12.7°C
Winds 5.8 mph WSW9.3 kmh WSW 19.6 mph -31.5 kmh - - 6.3 mph 10.1 kmh
Wind Gusts 11.5 mph18.5 kmh 29.9 mph48.1 kmh - -
Humidity 99% 99% 86% 93%
Pressure 29.51 in999.3 mb 29.70 in1005.8 mb 29.45 in997.3 mb -
Precipitation - 0.54 in13.7 mm - -
Hour Temp Dew Point Humidity Winds Wind Gusts Pressure Precip Precip Rate Daily Precip Total
08:40 PM 62.0°F16.7°C 61.8°F16.6°C 99% 5.8 mph WSW9.3 kmh WSW 11.5 mph18.5 kmh 29.51 in999.3 mb - 0.00 in0.0 mm 0.54 in13.7 mm
08:30 PM 62.0°F16.7°C 61.7°F16.5°C 99% 6.9 mph SW11.1 kmh SW 13.8 mph22.2 kmh 29.51 in999.3 mb - 0.00 in0.0 mm 0.54 in13.7 mm
08:20 PM 62.0°F16.7°C 61.7°F16.5°C 99% 8.1 mph SSW13.0 kmh SSW 11.5 mph18.5 kmh 29.51 in999.3 mb - 0.00 in0.0 mm 0.54 in13.7 mm
08:10 PM 62.1°F16.7°C 61.8°F16.6°C 99% 4.6 mph SW7.4 kmh SW 11.5 mph18.5 kmh 29.52 in999.7 mb - 0.00 in0.0 mm 0.54 in13.7 mm
08:00 PM 62.0°F16.7°C 61.7°F16.5°C 99% 8.1 mph SW13.0 kmh SW 13.8 mph22.2 kmh 29.51 in999.3 mb - 0.00 in0.0 mm 0.54 in13.7 mm
07:50 PM 62.0°F16.7°C 61.7°F16.5°C 99% 6.9 mph W11.1 kmh W 12.7 mph20.4 kmh 29.51 in999.3 mb - 0.00 in0.0 mm 0.54 in13.7 mm
07:40 PM 62.0°F16.7°C 61.7°F16.5°C 99% 8.1 mph SW13.0 kmh SW 19.6 mph31.5 kmh 29.51 in999.3 mb - 0.00 in0.0 mm 0.54 in13.7 mm
07:30 PM 62.0°F16.7°C 61.7°F16.5°C 99% 8.1 mph WNW13.0 kmh WNW 13.8 mph22.2 kmh 29.51 in999.3 mb - 0.00 in0.0 mm 0.54 in13.7 mm
07:20 PM 62.1°F16.7°C 61.8°F16.6°C 99% 8.1 mph SW13.0 kmh SW 13.8 mph22.2 kmh 29.50 in999.0 mb - 0.00 in0.0 mm 0.54 in13.7 mm
07:10 PM 62.1°F16.7°C 61.8°F16.6°C 99% 8.1 mph SW13.0 kmh SW 12.7 mph20.4 kmh 29.50 in999.0 mb - 0.00 in0.0 mm 0.54 in13.7 mm
07:00 PM 62.2°F16.8°C 61.9°F16.6°C 99% 8.1 mph WSW13.0 kmh WSW 11.5 mph18.5 kmh 29.50 in999.0 mb - 0.00 in0.0 mm 0.54 in13.7 mm
06:50 PM 62.2°F16.8°C 61.9°F16.6°C 99% 6.9 mph WSW11.1 kmh WSW 12.7 mph20.4 kmh 29.50 in999.0 mb - 0.00 in0.0 mm 0.54 in13.7 mm
06:40 PM 62.2°F16.8°C 61.9°F16.6°C 99% 6.9 mph SW11.1 kmh SW 13.8 mph22.2 kmh 29.50 in999.0 mb - 0.01 in0.3 mm 0.54 in13.7 mm
06:30 PM 62.2°F16.8°C 61.9°F16.6°C 99% 8.1 mph WSW13.0 kmh WSW 15.0 mph24.1 kmh 29.50 in999.0 mb - 0.01 in0.3 mm 0.54 in13.7 mm
06:20 PM 62.2°F16.8°C 61.9°F16.6°C 99% 9.2 mph WSW14.8 kmh WSW 16.1 mph25.9 kmh 29.50 in999.0 mb - 0.01 in0.3 mm 0.54 in13.7 mm
06:10 PM 62.3°F16.8°C 62.0°F16.7°C 99% 6.9 mph SW11.1 kmh SW 11.5 mph18.5 kmh 29.50 in999.0 mb - 0.01 in0.3 mm 0.54 in13.7 mm
06:00 PM 62.4°F16.9°C 62.1°F16.7°C 99% 5.8 mph SW9.3 kmh SW 11.5 mph18.5 kmh 29.50 in999.0 mb - 0.01 in0.3 mm 0.54 in13.7 mm
05:50 PM 62.4°F16.9°C 62.1°F16.7°C 99% 9.2 mph NW14.8 kmh NW 16.1 mph25.9 kmh 29.50 in999.0 mb - 0.01 in0.3 mm 0.54 in13.7 mm
05:40 PM 62.5°F16.9°C 62.2°F16.8°C 99% 8.1 mph W13.0 kmh W 15.0 mph24.1 kmh 29.49 in998.6 mb - 0.01 in0.3 mm 0.54 in13.7 mm
05:30 PM 62.6°F17.0°C 62.3°F16.8°C 99% 6.9 mph SW11.1 kmh SW 11.5 mph18.5 kmh 29.49 in998.6 mb - 0.00 in0.0 mm 0.53 in13.5 mm
05:20 PM 62.6°F17.0°C 62.3°F16.8°C 99% 8.1 mph SW13.0 kmh SW 12.7 mph20.4 kmh 29.49 in998.6 mb - 0.00 in0.0 mm 0.53 in13.5 mm
05:10 PM 62.7°F17.1°C 62.4°F16.9°C 99% 8.1 mph WSW13.0 kmh WSW 16.1 mph25.9 kmh 29.48 in998.3 mb - 0.00 in0.0 mm 0.53 in13.5 mm
05:00 PM 62.7°F17.1°C 62.5°F16.9°C 99% 5.8 mph WSW9.3 kmh WSW 13.8 mph22.2 kmh 29.48 in998.3 mb - 0.00 in0.0 mm 0.53 in13.5 mm
04:50 PM 62.7°F17.1°C 62.4°F16.9°C 99% 10.4 mph SW16.7 kmh SW 13.8 mph22.2 kmh 29.49 in998.6 mb - 0.00 in0.0 mm 0.53 in13.5 mm
04:40 PM 62.8°F17.1°C 62.5°F16.9°C 99% 8.1 mph WSW13.0 kmh WSW 11.5 mph18.5 kmh 29.48 in998.3 mb - 0.00 in0.0 mm 0.53 in13.5 mm
04:30 PM 62.9°F17.2°C 62.6°F17.0°C 99% 6.9 mph SW11.1 kmh SW 12.7 mph20.4 kmh 29.48 in998.3 mb - 0.00 in0.0 mm 0.53 in13.5 mm
04:20 PM 62.9°F17.2°C 62.6°F17.0°C 99% 5.8 mph WSW9.3 kmh WSW 13.8 mph22.2 kmh 29.48 in998.3 mb - 0.00 in0.0 mm 0.53 in13.5 mm
04:10 PM 62.9°F17.2°C 62.6°F17.0°C 99% 6.9 mph SSW11.1 kmh SSW 11.5 mph18.5 kmh 29.48 in998.3 mb - 0.00 in0.0 mm 0.53 in13.5 mm
04:00 PM 63.0°F17.2°C 62.7°F17.1°C 99% 9.2 mph WSW14.8 kmh WSW 16.1 mph25.9 kmh 29.48 in998.3 mb - 0.00 in0.0 mm 0.53 in13.5 mm
03:50 PM 62.9°F17.2°C 62.6°F17.0°C 99% 6.9 mph WSW11.1 kmh WSW 11.5 mph18.5 kmh 29.48 in998.3 mb - 0.00 in0.0 mm 0.53 in13.5 mm
03:40 PM 62.9°F17.2°C 62.6°F17.0°C 99% 9.2 mph SW14.8 kmh SW 15.0 mph24.1 kmh 29.48 in998.3 mb - 0.00 in0.0 mm 0.53 in13.5 mm
03:30 PM 62.8°F17.1°C 62.5°F16.9°C 99% 9.2 mph WSW14.8 kmh WSW 13.8 mph22.2 kmh 29.48 in998.3 mb - 0.00 in0.0 mm 0.53 in13.5 mm
03:20 PM 62.7°F17.1°C 62.4°F16.9°C 99% 8.1 mph W13.0 kmh W 12.7 mph20.4 kmh 29.48 in998.3 mb - 0.00 in0.0 mm 0.53 in13.5 mm
03:10 PM 62.7°F17.1°C 62.4°F16.9°C 99% 6.9 mph W11.1 kmh W 11.5 mph18.5 kmh 29.48 in998.3 mb - 0.00 in0.0 mm 0.53 in13.5 mm
03:00 PM 62.9°F17.2°C 62.6°F17.0°C 99% 8.1 mph WSW13.0 kmh WSW 11.5 mph18.5 kmh 29.47 in998.0 mb - 0.00 in0.0 mm 0.53 in13.5 mm
02:50 PM 62.6°F17.0°C 62.3°F16.8°C 99% 3.5 mph SW5.6 kmh SW 6.9 mph11.1 kmh 29.47 in998.0 mb - 0.00 in0.0 mm 0.53 in13.5 mm
02:40 PM 62.8°F17.1°C 62.5°F16.9°C 99% 4.6 mph W7.4 kmh W 8.1 mph13.0 kmh 29.47 in998.0 mb - 0.00 in0.0 mm 0.53 in13.5 mm
02:30 PM 63.0°F17.2°C 62.7°F17.1°C 99% 8.1 mph W13.0 kmh W 13.8 mph22.2 kmh 29.47 in998.0 mb - 0.00 in0.0 mm 0.53 in13.5 mm
02:20 PM 63.2°F17.3°C 62.9°F17.2°C 99% 5.8 mph WSW9.3 kmh WSW 11.5 mph18.5 kmh 29.47 in998.0 mb - 0.00 in0.0 mm 0.53 in13.5 mm
02:10 PM 63.1°F17.3°C 62.8°F17.1°C 99% 8.1 mph WSW13.0 kmh WSW 13.8 mph22.2 kmh 29.47 in998.0 mb - 0.01 in0.3 mm 0.53 in13.5 mm
02:00 PM 62.5°F16.9°C 62.2°F16.8°C 99% 8.1 mph WSW13.0 kmh WSW 11.5 mph18.5 kmh 29.46 in997.6 mb - 0.01 in0.3 mm 0.53 in13.5 mm
01:50 PM 61.6°F16.4°C 61.3°F16.3°C 99% 6.9 mph SW11.1 kmh SW 15.0 mph24.1 kmh 29.46 in997.6 mb - 0.02 in0.5 mm 0.53 in13.5 mm
01:40 PM 60.9°F16.1°C 60.6°F15.9°C 99% 12.7 mph S20.4 kmh S 20.7 mph33.3 kmh 29.45 in997.3 mb - 0.03 in0.8 mm 0.53 in13.5 mm
01:30 PM 60.5°F15.8°C 60.2°F15.7°C 99% 10.4 mph SSE16.7 kmh SSE 13.8 mph22.2 kmh 29.46 in997.6 mb - 0.07 in1.8 mm 0.53 in13.5 mm
01:20 PM 60.0°F15.6°C 59.7°F15.4°C 99% 11.5 mph SE18.5 kmh SE 17.3 mph27.8 kmh 29.45 in997.3 mb - 0.10 in2.5 mm 0.53 in13.5 mm
01:10 PM 59.6°F15.3°C 59.3°F15.2°C 99% 16.1 mph SE25.9 kmh SE 26.5 mph42.6 kmh 29.46 in997.6 mb - 0.16 in4.1 mm 0.52 in13.2 mm
01:00 PM 59.4°F15.2°C 59.1°F15.1°C 99% 19.6 mph SE31.5 kmh SE 27.6 mph44.4 kmh 29.46 in997.6 mb - 0.21 in5.3 mm 0.52 in13.2 mm
12:50 PM 59.1°F15.1°C 58.8°F14.9°C 99% 18.4 mph SE29.6 kmh SE 29.9 mph48.1 kmh 29.47 in998.0 mb - 0.24 in6.1 mm 0.51 in13.0 mm
12:40 PM 59.1°F15.1°C 58.8°F14.9°C 99% 16.1 mph SE25.9 kmh SE 25.3 mph40.7 kmh 29.48 in998.3 mb - 0.26 in6.6 mm 0.50 in12.7 mm
12:30 PM 59.0°F15.0°C 58.8°F14.9°C 99% 16.1 mph SE25.9 kmh SE 21.9 mph35.2 kmh 29.49 in998.6 mb - 0.27 in6.9 mm 0.47 in11.9 mm
12:20 PM 59.0°F15.0°C 58.8°F14.9°C 99% 13.8 mph SE22.2 kmh SE 18.4 mph29.6 kmh 29.50 in999.0 mb - 0.27 in6.9 mm 0.43 in10.9 mm
12:10 PM 59.1°F15.1°C 58.8°F14.9°C 99% 11.5 mph SSE18.5 kmh SSE 15.0 mph24.1 kmh 29.51 in999.3 mb - 0.24 in6.1 mm 0.37 in9.4 mm
12:00 PM 59.0°F15.0°C 58.7°F14.8°C 99% 12.7 mph SE20.4 kmh SE 24.2 mph38.9 kmh 29.51 in999.3 mb - 0.21 in5.3 mm 0.32 in8.1 mm
11:50 AM 58.9°F14.9°C 58.6°F14.8°C 99% 12.7 mph SSE20.4 kmh SSE 25.3 mph40.7 kmh 29.52 in999.7 mb - 0.18 in4.6 mm 0.27 in6.9 mm
11:40 AM 58.5°F14.7°C 58.3°F14.6°C 99% 12.7 mph SE20.4 kmh SE 21.9 mph35.2 kmh 29.53 in1000.0 mb - 0.17 in4.3 mm 0.24 in6.1 mm
11:30 AM 58.3°F14.6°C 58.0°F14.4°C 99% 13.8 mph SE22.2 kmh SE 19.6 mph31.5 kmh 29.53 in1000.0 mb - 0.14 in3.6 mm 0.20 in5.1 mm
11:20 AM 58.1°F14.5°C 57.8°F14.3°C 99% 15.0 mph SE24.1 kmh SE 19.6 mph31.5 kmh 29.53 in1000.0 mb - 0.13 in3.3 mm 0.17 in4.3 mm
11:10 AM 58.3°F14.6°C 58.0°F14.4°C 99% 11.5 mph SSE18.5 kmh SSE 16.1 mph25.9 kmh 29.54 in1000.3 mb - 0.11 in2.8 mm 0.14 in3.6 mm
11:00 AM 58.5°F14.7°C 58.2°F14.6°C 99% 13.8 mph SE22.2 kmh SE 20.7 mph33.3 kmh 29.55 in1000.7 mb - 0.10 in2.5 mm 0.12 in3.0 mm
10:50 AM 58.6°F14.8°C 58.4°F14.7°C 99% 10.4 mph SSE16.7 kmh SSE 15.0 mph24.1 kmh 29.56 in1001.0 mb - 0.07 in1.8 mm 0.09 in2.3 mm
10:40 AM 58.6°F14.8°C 58.4°F14.7°C 99% 12.7 mph SE20.4 kmh SE 20.7 mph33.3 kmh 29.56 in1001.0 mb - 0.05 in1.3 mm 0.07 in1.8 mm
10:30 AM 58.6°F14.8°C 58.3°F14.6°C 99% 9.2 mph S14.8 kmh S 19.6 mph31.5 kmh 29.57 in1001.4 mb - 0.05 in1.3 mm 0.06 in1.5 mm
10:20 AM 58.8°F14.9°C 54.6°F12.6°C 86% 9.2 mph S14.8 kmh S 12.7 mph20.4 kmh 29.57 in1001.4 mb - 0.03 in0.8 mm 0.04 in1.0 mm
10:10 AM 58.9°F14.9°C 54.7°F12.6°C 86% 6.9 mph SSE11.1 kmh SSE 12.7 mph20.4 kmh 29.58 in1001.7 mb - 0.03 in0.8 mm 0.04 in1.0 mm
10:00 AM 59.0°F15.0°C 54.8°F12.7°C 86% 8.1 mph SSE13.0 kmh SSE 11.5 mph18.5 kmh 29.59 in1002.0 mb - 0.02 in0.5 mm 0.02 in0.5 mm
09:50 AM 59.2°F15.1°C 55.0°F12.8°C 86% 10.4 mph SSE16.7 kmh SSE 13.8 mph22.2 kmh 29.59 in1002.0 mb - 0.02 in0.5 mm 0.02 in0.5 mm
09:40 AM 59.2°F15.1°C 55.0°F12.8°C 86% 8.1 mph SSE13.0 kmh SSE 13.8 mph22.2 kmh 29.59 in1002.0 mb - 0.02 in0.5 mm 0.02 in0.5 mm
09:30 AM 59.3°F15.2°C 55.1°F12.8°C 86% 10.4 mph SSE16.7 kmh SSE 15.0 mph24.1 kmh 29.60 in1002.4 mb - 0.01 in0.3 mm 0.01 in0.3 mm
09:20 AM 59.6°F15.3°C 55.4°F13.0°C 86% 11.5 mph S18.5 kmh S 16.1 mph25.9 kmh 29.60 in1002.4 mb - 0.01 in0.3 mm 0.01 in0.3 mm
09:10 AM 59.9°F15.5°C 55.7°F13.2°C 86% 12.7 mph S20.4 kmh S 16.1 mph25.9 kmh 29.60 in1002.4 mb - 0.01 in0.3 mm 0.01 in0.3 mm
09:00 AM 60.0°F15.6°C 55.8°F13.2°C 86% 9.2 mph SE14.8 kmh SE 15.0 mph24.1 kmh 29.61 in1002.7 mb - 0.00 in0.0 mm 0.00 in0.0 mm
08:50 AM 60.0°F15.6°C 55.8°F13.2°C 86% 11.5 mph SE18.5 kmh SE 15.0 mph24.1 kmh 29.61 in1002.7 mb - 0.00 in0.0 mm 0.00 in0.0 mm
08:40 AM 59.9°F15.5°C 55.7°F13.2°C 86% 10.4 mph SE16.7 kmh SE 15.0 mph24.1 kmh 29.61 in1002.7 mb - 0.00 in0.0 mm 0.00 in0.0 mm
08:30 AM 59.6°F15.3°C 55.8°F13.2°C 87% 11.5 mph SSE18.5 kmh SSE 16.1 mph25.9 kmh 29.62 in1003.0 mb - 0.00 in0.0 mm 0.00 in0.0 mm
08:20 AM 59.1°F15.1°C 55.2°F12.9°C 87% 6.9 mph SE11.1 kmh SE 11.5 mph18.5 kmh 29.62 in1003.0 mb - 0.00 in0.0 mm 0.00 in0.0 mm
08:10 AM 58.5°F14.7°C 54.6°F12.6°C 87% 6.9 mph SE11.1 kmh SE 12.7 mph20.4 kmh 29.63 in1003.4 mb - 0.00 in0.0 mm 0.00 in0.0 mm
08:00 AM 58.2°F14.6°C 54.3°F12.4°C 87% 8.1 mph SE13.0 kmh SE 13.8 mph22.2 kmh 29.63 in1003.4 mb - 0.00 in0.0 mm 0.00 in0.0 mm
07:50 AM 58.1°F14.5°C 54.2°F12.3°C 87% 9.2 mph SE14.8 kmh SE 11.5 mph18.5 kmh 29.64 in1003.7 mb - 0.00 in0.0 mm 0.00 in0.0 mm
07:40 AM 57.8°F14.3°C 54.0°F12.2°C 87% 8.1 mph SSE13.0 kmh SSE 13.8 mph22.2 kmh 29.64 in1003.7 mb - 0.00 in0.0 mm 0.00 in0.0 mm
07:30 AM 57.7°F14.3°C 54.2°F12.3°C 88% 9.2 mph SE14.8 kmh SE 11.5 mph18.5 kmh 29.64 in1003.7 mb - 0.00 in0.0 mm 0.00 in0.0 mm
07:20 AM 57.4°F14.1°C 54.2°F12.3°C 89% 6.9 mph S11.1 kmh S 11.5 mph18.5 kmh 29.64 in1003.7 mb - 0.00 in0.0 mm 0.00 in0.0 mm
07:10 AM 57.0°F13.9°C 53.8°F12.1°C 89% 9.2 mph SSE14.8 kmh SSE 13.8 mph22.2 kmh 29.64 in1003.7 mb - 0.00 in0.0 mm 0.00 in0.0 mm
07:00 AM 56.1°F13.4°C 52.9°F11.6°C 89% 5.8 mph SE9.3 kmh SE 8.1 mph13.0 kmh 29.65 in1004.1 mb - 0.00 in0.0 mm 0.00 in0.0 mm
06:50 AM 54.0°F12.2°C 50.8°F10.4°C 89% 3.5 mph SE5.6 kmh SE 5.8 mph9.3 kmh 29.65 in1004.1 mb - 0.00 in0.0 mm 0.00 in0.0 mm
06:40 AM 52.9°F11.6°C 49.7°F9.8°C 89% 2.3 mph ESE3.7 kmh ESE 5.8 mph9.3 kmh 29.66 in1004.4 mb - 0.00 in0.0 mm 0.00 in0.0 mm
06:30 AM 52.1°F11.2°C 49.0°F9.4°C 89% 2.3 mph E3.7 kmh E 4.6 mph7.4 kmh 29.66 in1004.4 mb - 0.00 in0.0 mm 0.00 in0.0 mm
06:20 AM 51.1°F10.6°C 48.0°F8.9°C 89% Calm Calm -- 29.66 in1004.4 mb - 0.00 in0.0 mm 0.00 in0.0 mm
06:10 AM 49.6°F9.8°C 46.5°F8.1°C 89% Calm Calm -- 29.66 in1004.4 mb - 0.00 in0.0 mm 0.00 in0.0 mm
06:00 AM 49.0°F9.4°C 45.9°F7.7°C 89% Calm Calm -- 29.66 in1004.4 mb - 0.00 in0.0 mm 0.00 in0.0 mm
05:50 AM 48.5°F9.2°C 45.4°F7.4°C 89% Calm Calm -- 29.66 in1004.4 mb - 0.00 in0.0 mm 0.00 in0.0 mm
05:40 AM 48.3°F9.1°C 45.2°F7.3°C 89% Calm Calm -- 29.66 in1004.4 mb - 0.00 in0.0 mm 0.00 in0.0 mm
05:30 AM 48.0°F8.9°C 44.9°F7.2°C 89% Calm Calm -- 29.66 in1004.4 mb - 0.00 in0.0 mm 0.00 in0.0 mm
05:20 AM 47.9°F8.8°C 44.8°F7.1°C 89% Calm Calm -- 29.67 in1004.7 mb - 0.00 in0.0 mm 0.00 in0.0 mm
05:10 AM 47.5°F8.6°C 44.4°F6.9°C 89% Calm Calm -- 29.67 in1004.7 mb - 0.00 in0.0 mm 0.00 in0.0 mm
05:00 AM 47.3°F8.5°C 44.2°F6.8°C 89% Calm Calm -- 29.67 in1004.7 mb - 0.00 in0.0 mm 0.00 in0.0 mm
04:50 AM 47.4°F8.6°C 44.3°F6.8°C 89% Calm Calm -- 29.67 in1004.7 mb - 0.00 in0.0 mm 0.00 in0.0 mm
04:40 AM 47.3°F8.5°C 44.2°F6.8°C 89% Calm Calm -- 29.67 in1004.7 mb - 0.00 in0.0 mm 0.00 in0.0 mm
04:30 AM 47.3°F8.5°C 44.2°F6.8°C 89% Calm Calm -- 29.68 in1005.1 mb - 0.00 in0.0 mm 0.00 in0.0 mm
04:20 AM 47.4°F8.6°C 44.3°F6.8°C 89% Calm Calm -- 29.68 in1005.1 mb - 0.00 in0.0 mm 0.00 in0.0 mm
04:10 AM 47.6°F8.7°C 44.5°F6.9°C 89% Calm Calm -- 29.68 in1005.1 mb - 0.00 in0.0 mm 0.00 in0.0 mm
04:00 AM 47.5°F8.6°C 44.4°F6.9°C 89% Calm Calm -- 29.68 in1005.1 mb - 0.00 in0.0 mm 0.00 in0.0 mm
03:50 AM 47.3°F8.5°C 44.2°F6.8°C 89% Calm Calm -- 29.68 in1005.1 mb - 0.00 in0.0 mm 0.00 in0.0 mm
03:40 AM 47.3°F8.5°C 43.9°F6.6°C 88% Calm Calm -- 29.69 in1005.4 mb - 0.00 in0.0 mm 0.00 in0.0 mm
03:30 AM 47.6°F8.7°C 44.3°F6.8°C 88% Calm Calm -- 29.69 in1005.4 mb - 0.00 in0.0 mm 0.00 in0.0 mm
03:20 AM 48.0°F8.9°C 44.6°F7.0°C 88% Calm Calm -- 29.69 in1005.4 mb - 0.00 in0.0 mm 0.00 in0.0 mm
03:10 AM 48.0°F8.9°C 44.6°F7.0°C 88% Calm Calm -- 29.70 in1005.8 mb - 0.00 in0.0 mm 0.00 in0.0 mm
03:00 AM 48.2°F9.0°C 44.8°F7.1°C 88% Calm Calm -- 29.70 in1005.8 mb - 0.00 in0.0 mm 0.00 in0.0 mm
02:50 AM 48.2°F9.0°C 44.8°F7.1°C 88% Calm Calm -- 29.70 in1005.8 mb - 0.00 in0.0 mm 0.00 in0.0 mm
02:40 AM 47.9°F8.8°C 44.5°F6.9°C 88% Calm Calm -- 29.70 in1005.8 mb - 0.00 in0.0 mm 0.00 in0.0 mm
02:30 AM 47.8°F8.8°C 44.4°F6.9°C 88% Calm Calm -- 29.70 in1005.8 mb - 0.00 in0.0 mm 0.00 in0.0 mm
02:20 AM 47.7°F8.7°C 44.3°F6.8°C 88% Calm Calm -- 29.70 in1005.8 mb - 0.00 in0.0 mm 0.00 in0.0 mm
02:10 AM 48.0°F8.9°C 44.6°F7.0°C 88% Calm Calm -- 29.70 in1005.8 mb - 0.00 in0.0 mm 0.00 in0.0 mm
02:00 AM 48.2°F9.0°C 44.8°F7.1°C 88% Calm Calm -- 29.70 in1005.8 mb - 0.00 in0.0 mm 0.00 in0.0 mm
01:50 AM 48.2°F9.0°C 44.8°F7.1°C 88% Calm Calm -- 29.70 in1005.8 mb - 0.00 in0.0 mm 0.00 in0.0 mm
01:40 AM 48.3°F9.1°C 44.9°F7.2°C 88% Calm Calm -- 29.70 in1005.8 mb - 0.00 in0.0 mm 0.00 in0.0 mm
01:30 AM 48.8°F9.3°C 45.1°F7.3°C 87% Calm Calm -- 29.70 in1005.8 mb - 0.00 in0.0 mm 0.00 in0.0 mm
01:20 AM 49.4°F9.7°C 45.6°F7.6°C 87% Calm Calm -- 29.70 in1005.8 mb - 0.00 in0.0 mm 0.00 in0.0 mm
01:10 AM 51.1°F10.6°C 47.7°F8.7°C 88% Calm Calm 2.3 mph3.7 kmh 29.70 in1005.8 mb - 0.00 in0.0 mm 0.00 in0.0 mm
01:00 AM 51.6°F10.9°C 48.2°F9.0°C 88% 1.2 mph W1.9 kmh W 4.6 mph7.4 kmh 29.70 in1005.8 mb - 0.00 in0.0 mm 0.00 in0.0 mm
12:50 AM 51.5°F10.8°C 48.1°F8.9°C 88% 2.3 mph W3.7 kmh W 5.8 mph9.3 kmh 29.70 in1005.8 mb - 0.00 in0.0 mm 0.00 in0.0 mm
12:40 AM 51.1°F10.6°C 48.0°F8.9°C 89% 2.3 mph W3.7 kmh W 4.6 mph7.4 kmh 29.70 in1005.8 mb - 0.00 in0.0 mm 0.00 in0.0 mm
12:30 AM 50.4°F10.2°C 47.3°F8.5°C 89% 2.3 mph SW3.7 kmh SW 5.8 mph9.3 kmh 29.70 in1005.8 mb - 0.00 in0.0 mm 0.00 in0.0 mm
12:20 AM 49.4°F9.7°C 46.3°F7.9°C 89% Calm Calm -- 29.70 in1005.8 mb - 0.00 in0.0 mm 0.00 in0.0 mm
12:10 AM 47.6°F8.7°C 44.2°F6.8°C 88% Calm Calm -- 29.70 in1005.8 mb - 0.00 in0.0 mm 0.00 in0.0 mm
12:00 AM 47.6°F8.7°C 44.2°F6.8°C 88% Calm Calm -- 29.70 in1005.8 mb - 0.00 in0.0 mm 0.00 in0.0 mm